Time;durP1;ratioP1;P1;durP2;ratioP2;P2;SDS_P1;SDS_P2;PMS_P1;PMS_P2;Temp;Humidity;BMP_temperature;BMP_pressure;BME280_temperature;BME280_humidity;BME280_pressure;Samples;Min_cycle;Max_cycle;Signal;HPM_P1;HPM_P2
2022/11/14 00:01:26;;;;;;;;;29.00;29.00;;;;;11.66;64.65;100633.69;5043459;28;45574;-70
2022/11/14 00:03:52;;;;;;;;;29.67;27.67;;;;;11.66;64.17;100634.56;5034180;28;45501;-70
2022/11/14 00:06:17;;;;;;;;;29.67;28.00;;;;;11.66;64.23;100634.56;5034153;28;45469;-69
2022/11/14 00:08:43;;;;;;;;;28.00;27.67;;;;;11.65;64.04;100634.63;5023307;28;45676;-70
2022/11/14 00:11:08;;;;;;;;;23.33;23.33;;;;;11.64;64.88;100632.91;5048323;28;45439;-70
2022/11/14 00:13:34;;;;;;;;;35.33;30.67;;;;;11.64;64.77;100627.66;5036456;28;45701;-71
2022/11/14 00:16:00;;;;;;;;;33.67;32.00;;;;;11.62;65.33;100629.47;5034338;28;45552;-71
2022/11/14 00:18:25;;;;;;;;;35.75;33.25;;;;;11.63;65.14;100631.19;5034324;28;45412;-68
2022/11/14 00:20:52;;;;;;;;;52.50;42.75;;;;;11.64;64.22;100625.03;5041379;28;45579;-69
2022/11/14 00:23:19;;;;;;;;;113.00;105.00;;;;;11.57;64.99;100620.91;5053618;28;45485;-70
2022/11/14 00:25:45;;;;;;;;;89.50;81.50;;;;;11.53;64.85;100611.41;5052990;28;45609;-69
2022/11/14 00:28:10;;;;;;;;;82.25;75.50;;;;;11.55;65.03;100604.28;5047243;28;45490;-68
2022/11/14 00:30:36;;;;;;;;;68.50;55.25;;;;;11.53;65.11;100603.50;5053550;28;45445;-69
2022/11/14 00:33:01;;;;;;;;;47.50;37.00;;;;;11.56;64.33;100606.03;5044864;28;45717;-69
2022/11/14 00:35:26;;;;;;;;;65.75;50.25;;;;;11.61;65.41;100604.06;5053946;28;45993;-71
2022/11/14 00:37:52;;;;;;;;;49.00;42.00;;;;;11.62;65.22;100609.25;5054402;28;45482;-70
2022/11/14 00:40:17;;;;;;;;;45.50;39.00;;;;;11.58;64.52;100607.69;5053221;28;45474;-71
2022/11/14 00:42:43;;;;;;;;;74.25;60.25;;;;;11.60;64.51;100603.19;5044056;28;45369;-70
2022/11/14 00:45:09;;;;;;;;;59.75;47.50;;;;;11.59;64.71;100614.66;5048035;28;46070;-69
2022/11/14 00:47:35;;;;;;;;;62.75;51.00;;;;;11.57;64.44;100605.94;5042539;28;45400;-70
2022/11/14 00:50:00;;;;;;;;;82.25;71.75;;;;;11.57;64.71;100595.41;5042496;28;45458;-69
2022/11/14 00:52:25;;;;;;;;;83.75;73.50;;;;;11.60;64.21;100594.44;5037389;28;45369;-69
2022/11/14 00:54:51;;;;;;;;;61.00;49.50;;;;;11.57;64.71;100598.03;5040379;28;46300;-70
2022/11/14 00:57:16;;;;;;;;;43.00;37.25;;;;;11.58;64.61;100596.25;5026970;28;45414;-69
2022/11/14 00:59:42;;;;;;;;;43.00;35.50;;;;;11.60;65.07;100591.78;5044168;28;45345;-69
2022/11/14 01:02:07;;;;;;;;;46.25;37.00;;;;;11.61;64.75;100589.13;5041241;28;45597;-70
2022/11/14 01:04:32;;;;;;;;;38.75;34.50;;;;;11.62;64.92;100596.09;5036784;28;46107;-70
2022/11/14 01:06:58;;;;;;;;;62.00;50.50;;;;;11.63;64.03;100603.09;5042988;28;45493;-69
2022/11/14 01:09:23;;;;;;;;;70.25;56.00;;;;;11.63;65.19;100602.22;5042821;28;45570;-70
2022/11/14 01:11:48;;;;;;;;;74.25;61.75;;;;;11.62;64.28;100598.72;5046614;28;45583;-69
2022/11/14 01:14:13;;;;;;;;;62.50;50.75;;;;;11.55;63.93;100594.59;5043577;28;45557;-68
2022/11/14 01:16:39;;;;;;;;;69.75;55.00;;;;;11.50;64.29;100583.41;5038578;28;45452;-67
2022/11/14 01:19:04;;;;;;;;;54.75;45.50;;;;;11.48;64.96;100585.25;5037389;28;45527;-68
2022/11/14 01:21:30;;;;;;;;;52.00;42.25;;;;;11.45;64.70;100588.00;5040738;28;45592;-68
2022/11/14 01:23:55;;;;;;;;;43.50;38.00;;;;;11.43;64.41;100580.16;5041831;28;46148;-69
2022/11/14 01:26:20;;;;;;;;;47.25;39.00;;;;;11.42;64.51;100574.97;5036785;28;45470;-70
2022/11/14 01:28:46;;;;;;;;;43.75;38.25;;;;;11.41;64.54;100573.22;5050220;28;45521;-68
2022/11/14 01:31:18;;;;;;;;;221.25;203.00;;;;;11.39;65.21;100565.41;5054798;28;45505;-67
2022/11/14 01:33:48;;;;;;;;;154.67;143.67;;;;;11.40;64.99;100563.63;5054707;28;46662;-67
2022/11/14 01:36:13;;;;;;;;;72.50;57.50;;;;;11.40;64.28;100561.84;5042867;28;45475;-69
2022/11/14 01:38:38;;;;;;;;;31.33;28.00;;;;;11.44;64.40;100562.56;5027428;28;45452;-69
2022/11/14 01:41:04;;;;;;;;;37.00;33.00;;;;;11.47;65.30;100565.97;5041880;28;45552;-67
2022/11/14 01:43:31;;;;;;;;;33.33;33.00;;;;;11.48;64.40;100556.28;5050131;28;45533;-67
2022/11/14 01:46:00;;;;;;;;;38.75;34.00;;;;;11.49;64.49;100553.56;5037421;28;45621;-67
2022/11/14 01:48:36;;;;;;;;;35.33;33.33;;;;;11.49;64.03;100543.03;5064361;28;45480;-68
2022/11/14 01:51:14;;;;;;;;;30.67;30.33;;;;;11.48;65.25;100543.09;5048731;28;45478;-67
2022/11/14 01:53:41;;;;;;;;;27.33;27.33;;;;;11.48;64.78;100548.38;5057002;28;45410;-68
2022/11/14 01:56:08;;;;;;;;;29.00;28.33;;;;;11.45;64.57;100537.97;5056958;28;45332;-68
2022/11/14 01:58:38;;;;;;;;;28.67;28.33;;;;;11.46;64.57;100547.56;5043239;28;45479;-67
2022/11/14 02:01:03;;;;;;;;;34.00;30.67;;;;;11.39;65.05;100546.09;5045303;28;45511;-68
2022/11/14 02:03:29;;;;;;;;;34.33;31.67;;;;;11.36;65.07;100543.59;5046684;28;46101;-67
2022/11/14 02:05:55;;;;;;;;;33.00;32.25;;;;;11.32;65.15;100539.38;5030192;28;45582;-67
2022/11/14 02:08:22;;;;;;;;;37.33;32.00;;;;;11.32;64.87;100549.91;5050002;28;45447;-67
2022/11/14 02:10:47;;;;;;;;;41.75;35.50;;;;;11.33;64.97;100544.56;5055772;28;45363;-68
2022/11/14 02:13:12;;;;;;;;;37.00;32.00;;;;;11.31;65.24;100543.78;5051292;28;46160;-68
2022/11/14 02:15:38;;;;;;;;;33.33;30.33;;;;;11.30;64.29;100542.06;5043282;28;45418;-67
2022/11/14 02:18:04;;;;;;;;;30.67;28.33;;;;;11.25;64.97;100546.63;5049341;28;45503;-67
2022/11/14 02:20:34;;;;;;;;;34.67;30.67;;;;;11.24;64.66;100544.94;5051264;28;45625;-68
2022/11/14 02:23:00;;;;;;;;;34.67;32.00;;;;;11.25;65.09;100544.00;5045113;28;46159;-68
2022/11/14 02:25:25;;;;;;;;;31.67;29.33;;;;;11.22;64.76;100539.72;5051550;28;45563;-68
2022/11/14 02:27:51;;;;;;;;;37.67;32.00;;;;;11.23;64.83;100538.81;5051527;28;45592;-68
2022/11/14 02:30:21;;;;;;;;;36.00;32.00;;;;;11.24;64.50;100550.19;5047821;28;45615;-68
2022/11/14 02:32:46;;;;;;;;;32.67;31.00;;;;;11.20;64.66;100531.03;5046116;28;46418;-68
2022/11/14 02:35:12;;;;;;;;;30.67;29.67;;;;;11.16;65.00;100526.81;5045479;28;45414;-67
2022/11/14 02:37:38;;;;;;;;;28.00;25.67;;;;;11.18;65.30;100524.97;5052483;28;45510;-68
2022/11/14 02:40:04;;;;;;;;;33.67;29.67;;;;;11.14;64.61;100527.78;5051033;28;45440;-68
2022/11/14 02:42:29;;;;;;;;;36.00;30.33;;;;;11.00;65.13;100523.03;5052983;28;46283;-67
2022/11/14 02:44:55;;;;;;;;;29.00;26.00;;;;;10.95;65.08;100520.59;5046904;28;45564;-68
2022/11/14 02:47:20;;;;;;;;;23.67;23.67;;;;;10.94;65.10;100512.75;5030868;28;45455;-68
2022/11/14 02:49:45;;;;;;;;;22.33;22.00;;;;;10.95;65.24;100519.72;5042612;28;45674;-68
2022/11/14 02:52:11;;;;;;;;;28.33;27.00;;;;;10.91;65.22;100511.09;5048119;28;50494;-67
2022/11/14 02:54:36;;;;;;;;;20.33;20.00;;;;;10.92;65.55;100509.31;5056392;28;45443;-68
2022/11/14 02:57:01;;;;;;;;;24.00;24.00;;;;;10.86;65.63;100515.69;5050043;28;45509;-68
2022/11/14 02:59:27;;;;;;;;;26.00;23.33;;;;;10.74;65.36;100503.81;5044638;28;45567;-68
2022/11/14 03:01:52;;;;;;;;;24.33;22.33;;;;;10.66;65.87;100498.00;5044836;28;46575;-67
2022/11/14 03:04:17;;;;;;;;;27.33;24.33;;;;;10.70;65.62;100491.72;5051879;28;45620;-67
2022/11/14 03:06:43;;;;;;;;;24.67;21.67;;;;;10.70;65.64;100482.97;5026105;28;45428;-68
2022/11/14 03:09:08;;;;;;;;;21.00;21.00;;;;;10.64;66.09;100483.19;5041524;28;45496;-67
2022/11/14 03:11:34;;;;;;;;;24.00;21.67;;;;;10.68;65.89;100483.03;5051307;28;45997;-68
2022/11/14 03:13:59;;;;;;;;;22.33;22.00;;;;;10.72;65.76;100487.28;5040957;28;45434;-67
2022/11/14 03:16:25;;;;;;;;;21.00;21.00;;;;;10.76;66.01;100480.97;5050673;28;45666;-68
2022/11/14 03:18:50;;;;;;;;;19.00;19.00;;;;;10.77;65.34;100479.19;5049265;28;45574;-67
2022/11/14 03:21:18;;;;;;;;;21.33;17.67;;;;;10.79;65.53;100483.47;5031442;28;45518;-68
2022/11/14 03:23:44;;;;;;;;;28.33;23.33;;;;;10.76;64.81;100478.34;5054221;28;45607;-68
2022/11/14 03:26:11;;;;;;;;;21.67;21.00;;;;;10.79;65.95;100478.22;5041676;28;45659;-68
2022/11/14 03:28:37;;;;;;;;;23.00;20.67;;;;;10.83;66.08;100479.81;5054931;28;45448;-68
2022/11/14 03:31:04;;;;;;;;;25.33;21.33;;;;;10.89;64.90;100480.50;5055789;28;46095;-67
2022/11/14 03:33:30;;;;;;;;;18.67;18.67;;;;;10.87;65.78;100472.66;5037113;28;45400;-67
2022/11/14 03:35:56;;;;;;;;;23.00;21.33;;;;;10.91;64.75;100476.91;5048698;28;45522;-67
2022/11/14 03:38:24;;;;;;;;;25.67;22.33;;;;;10.95;65.97;100485.53;5035646;28;45372;-67
2022/11/14 03:40:50;;;;;;;;;22.67;21.67;;;;;10.96;65.87;100487.22;5055259;28;46204;-67
2022/11/14 03:43:17;;;;;;;;;28.33;23.33;;;;;10.96;64.93;100481.97;5055740;28;45390;-67
2022/11/14 03:45:42;;;;;;;;;23.00;21.00;;;;;10.97;65.59;100481.91;5054455;28;45466;-67
2022/11/14 03:48:08;;;;;;;;;20.00;19.00;;;;;10.92;65.69;100486.50;5053510;28;45606;-67
2022/11/14 03:50:33;;;;;;;;;20.00;19.33;;;;;10.95;65.89;100481.13;5055475;28;46420;-67
2022/11/14 03:52:59;;;;;;;;;22.33;21.33;;;;;10.89;65.61;100478.72;5055266;28;45450;-67
2022/11/14 03:55:24;;;;;;;;;25.33;22.33;;;;;10.87;65.07;100472.66;5054484;28;45482;-67
2022/11/14 03:57:49;;;;;;;;;24.00;20.67;;;;;10.84;65.43;100478.03;5050012;28;45622;-67
2022/11/14 04:00:15;;;;;;;;;22.00;19.67;;;;;10.82;65.29;100478.09;5054322;28;46111;-67
2022/11/14 04:02:41;;;;;;;;;22.00;20.67;;;;;10.81;65.51;100465.88;5055408;28;45548;-67
2022/11/14 04:05:06;;;;;;;;;21.67;20.33;;;;;10.85;65.43;100471.84;5049530;28;45522;-67
2022/11/14 04:07:32;;;;;;;;;23.67;21.33;;;;;10.81;65.35;100460.59;5056117;28;45470;-67
2022/11/14 04:09:57;;;;;;;;;22.00;20.67;;;;;10.87;65.14;100456.88;5055033;28;45465;-67
2022/11/14 04:12:22;;;;;;;;;21.00;19.33;;;;;10.90;66.16;100455.91;5051432;28;50406;-67
2022/11/14 04:14:48;;;;;;;;;20.33;20.00;;;;;10.92;66.19;100456.69;5054623;28;45521;-67
2022/11/14 04:17:13;;;;;;;;;13.67;13.00;;;;;10.87;65.83;100456.88;5054981;28;45694;-67
2022/11/14 04:19:38;;;;;;;;;25.33;24.67;;;;;10.90;65.31;100469.06;5055015;28;46092;-67
2022/11/14 04:22:04;;;;;;;;;23.67;22.00;;;;;10.93;65.85;100479.44;5053976;28;45459;-67
2022/11/14 04:24:29;;;;;;;;;24.33;20.33;;;;;10.94;65.13;100478.56;5056487;28;45442;-67
2022/11/14 04:26:54;;;;;;;;;20.00;20.00;;;;;10.95;65.45;100469.72;5058481;28;45616;-67
2022/11/14 04:29:20;;;;;;;;;19.67;16.00;;;;;10.95;66.08;100475.84;5036962;28;47669;-67
2022/11/14 04:31:45;;;;;;;;;20.67;19.33;;;;;10.95;65.16;100475.84;5051028;28;48316;-67
2022/11/14 04:34:10;;;;;;;;;25.33;23.33;;;;;10.95;65.97;100480.25;5056836;28;46648;-67
2022/11/14 04:36:36;;;;;;;;;19.67;18.33;;;;;10.91;66.18;100478.66;5045727;28;45590;-67
2022/11/14 04:39:01;;;;;;;;;21.00;19.00;;;;;10.89;65.65;100477.88;5055487;28;45479;-67
2022/11/14 04:41:26;;;;;;;;;23.67;21.67;;;;;10.87;65.83;100469.19;5052920;28;45437;-67
2022/11/14 04:43:52;;;;;;;;;18.33;17.00;;;;;10.90;65.26;100467.28;5058508;28;45484;-67
2022/11/14 04:46:17;;;;;;;;;16.67;16.67;;;;;10.90;66.22;100469.91;5055074;28;45498;-67
2022/11/14 04:48:42;;;;;;;;;18.00;18.00;;;;;10.93;65.30;100474.19;5042737;28;45397;-67
2022/11/14 04:51:08;;;;;;;;;17.67;17.67;;;;;10.90;66.27;100466.41;5052708;28;45433;-67
2022/11/14 04:53:33;;;;;;;;;20.00;19.00;;;;;10.88;65.30;100460.34;5058092;28;45558;-67
2022/11/14 04:55:58;;;;;;;;;21.67;19.33;;;;;10.88;65.98;100461.25;5057772;28;51403;-67
2022/11/14 04:58:24;;;;;;;;;18.00;16.67;;;;;10.89;65.85;100454.19;5056195;28;52036;-67
2022/11/14 05:00:50;;;;;;;;;20.67;20.67;;;;;10.89;65.47;100454.19;5040901;28;45319;-67
2022/11/14 05:03:15;;;;;;;;;20.33;18.33;;;;;10.90;65.96;100453.25;5052727;28;45477;-67
2022/11/14 05:05:40;;;;;;;;;21.67;20.00;;;;;10.88;65.39;100436.69;5058035;28;45439;-67
2022/11/14 05:08:06;;;;;;;;;22.33;20.33;;;;;10.89;65.28;100451.56;5058488;28;45503;-67
2022/11/14 05:10:31;;;;;;;;;21.67;18.33;;;;;10.86;66.13;100442.03;5046819;28;45443;-67
2022/11/14 05:12:56;;;;;;;;;20.67;19.00;;;;;10.88;65.63;100439.31;5057835;28;45465;-67
2022/11/14 05:15:22;;;;;;;;;23.00;20.00;;;;;10.87;65.89;100425.31;5057906;28;45458;-67
2022/11/14 05:17:48;;;;;;;;;18.67;18.33;;;;;10.88;66.37;100437.56;5057727;28;46196;-67
2022/11/14 05:20:13;;;;;;;;;20.33;20.33;;;;;10.89;66.33;100435.78;5054883;28;45482;-67
2022/11/14 05:22:38;;;;;;;;;19.00;19.00;;;;;10.90;66.40;100430.44;5045774;28;45397;-67
2022/11/14 05:25:05;;;;;;;;;19.00;17.50;;;;;10.89;65.67;100425.25;5051647;28;45436;-68
2022/11/14 05:27:30;;;;;;;;;21.67;19.33;;;;;10.91;66.03;100426.91;5050692;28;45352;-67
2022/11/14 05:29:56;;;;;;;;;25.67;22.33;;;;;10.91;65.81;100433.91;5057438;28;45411;-69
2022/11/14 05:32:21;;;;;;;;;18.33;17.67;;;;;10.88;66.08;100424.41;5051538;28;45348;-67
2022/11/14 05:34:47;;;;;;;;;17.33;17.33;;;;;10.89;65.43;100423.47;5038761;28;45798;-67
2022/11/14 05:37:12;;;;;;;;;18.00;17.00;;;;;10.90;65.65;100421.69;5056097;28;45424;-67
2022/11/14 05:39:38;;;;;;;;;19.67;19.00;;;;;10.90;66.43;100417.28;5057155;28;47530;-67
2022/11/14 05:42:03;;;;;;;;;19.33;19.33;;;;;10.91;65.67;100410.25;5056371;28;45537;-67
2022/11/14 05:44:29;;;;;;;;;18.00;18.00;;;;;10.90;65.73;100405.91;5039546;28;45506;-67
2022/11/14 05:46:54;;;;;;;;;18.00;17.00;;;;;10.92;66.06;100410.19;5048271;28;46597;-67
2022/11/14 05:49:19;;;;;;;;;15.67;15.67;;;;;10.91;65.54;100402.34;5051320;28;45469;-67
2022/11/14 05:51:45;;;;;;;;;19.67;18.67;;;;;10.89;66.73;100391.06;5047964;28;45539;-67
2022/11/14 05:54:10;;;;;;;;;19.00;18.00;;;;;10.88;65.57;100398.09;5048908;28;45439;-67
2022/11/14 05:56:35;;;;;;;;;15.67;15.67;;;;;10.90;65.96;100405.91;5056696;28;52889;-67
2022/11/14 05:59:01;;;;;;;;;26.67;19.33;;;;;10.91;66.17;100397.09;5056981;28;45494;-67
2022/11/14 06:01:26;;;;;;;;;18.00;18.00;;;;;10.90;65.38;100390.13;5047574;28;45807;-67
2022/11/14 06:03:52;;;;;;;;;23.33;20.00;;;;;10.89;65.88;100391.91;5056974;28;45617;-67
2022/11/14 06:06:20;;;;;;;;;20.67;19.00;;;;;10.90;65.81;100390.13;5050697;28;45528;-67
2022/11/14 06:08:46;;;;;;;;;20.33;19.33;;;;;10.85;65.86;100379.78;5057388;28;45479;-67
2022/11/14 06:11:14;;;;;;;;;18.67;18.67;;;;;10.87;66.34;100385.00;5056007;28;45360;-67
2022/11/14 06:13:39;;;;;;;;;16.33;15.33;;;;;10.85;65.72;100395.56;5056940;28;45430;-67
2022/11/14 06:16:09;;;;;;;;;18.00;16.33;;;;;10.80;66.43;100373.84;5052223;28;45434;-67
2022/11/14 06:18:35;;;;;;;;;18.33;17.67;;;;;10.87;66.39;100387.63;5049977;28;45539;-67
2022/11/14 06:21:02;;;;;;;;;14.00;14.00;;;;;10.84;66.10;100386.81;5056797;28;45487;-67
2022/11/14 06:23:27;;;;;;;;;16.00;13.33;;;;;10.82;66.38;100385.16;5050151;28;45461;-67
2022/11/14 06:26:03;;;;;;;;;18.00;14.33;;;;;10.82;65.95;100391.28;5047272;28;46143;-67
2022/11/14 06:28:29;;;;;;;;;17.67;16.00;;;;;10.85;66.54;100392.94;5041417;28;45548;-66
2022/11/14 06:31:02;;;;;;;;;16.00;16.00;;;;;10.87;66.73;100395.50;5025585;28;45528;-64
2022/11/14 06:33:28;;;;;;;;;17.67;17.67;;;;;10.88;66.48;100391.94;5042274;28;45625;-66
2022/11/14 06:36:01;;;;;;;;;15.67;15.33;;;;;10.88;66.73;100398.09;5042683;28;46667;-65
2022/11/14 06:38:29;;;;;;;;;20.67;17.67;;;;;10.83;66.25;100398.28;5034390;28;45518;-65
2022/11/14 06:41:09;;;;;;;;;17.67;17.00;;;;;10.81;65.94;100394.84;5033637;28;45519;-65
2022/11/14 06:43:36;;;;;;;;;20.67;19.33;;;;;10.76;65.81;100402.03;5035656;28;45488;-66
2022/11/14 06:46:02;;;;;;;;;20.33;17.00;;;;;10.63;66.22;100403.44;5035148;28;45518;-67
2022/11/14 06:48:29;;;;;;;;;16.00;14.33;;;;;10.60;67.04;100401.78;5042260;28;45401;-70
2022/11/14 06:50:57;;;;;;;;;16.33;15.00;;;;;10.60;67.94;100398.31;5055494;28;45355;-66
2022/11/14 06:53:23;;;;;;;;;16.33;16.33;;;;;10.64;66.97;100399.91;5055662;28;45574;-66
2022/11/14 06:56:12;;;;;;;;;21.67;19.33;;;;;10.60;67.65;100409.66;5055428;28;45962;-66
2022/11/14 06:58:40;;;;;;;;;18.33;14.00;;;;;10.57;67.36;100414.19;5042059;28;45368;-66
2022/11/14 07:01:13;;;;;;;;;20.00;18.33;;;;;10.51;67.96;100423.19;5055653;28;45457;-66
2022/11/14 07:03:40;;;;;;;;;18.33;16.00;;;;;10.49;67.43;100426.78;5055447;28;45456;-65
2022/11/14 07:06:08;;;;;;;;;18.33;18.00;;;;;10.47;66.91;100429.47;5055264;28;46250;-65
2022/11/14 07:08:33;;;;;;;;;21.67;20.00;;;;;10.41;67.12;100428.84;5055866;28;45494;-65
2022/11/14 07:11:02;;;;;;;;;16.33;15.33;;;;;10.32;67.23;100440.56;5055407;28;45458;-65
2022/11/14 07:13:27;;;;;;;;;15.33;12.67;;;;;10.17;67.36;100437.53;5036999;28;45595;-66
2022/11/14 07:15:54;;;;;;;;;17.67;16.33;;;;;10.14;68.03;100434.16;5055289;28;46213;-66
2022/11/14 07:18:19;;;;;;;;;18.00;18.00;;;;;10.09;67.68;100428.22;5037056;28;45487;-65
2022/11/14 07:20:45;;;;;;;;;12.00;10.00;;;;;10.03;68.23;100431.94;5055175;28;45459;-66
2022/11/14 07:23:11;;;;;;;;;15.67;14.33;;;;;10.08;68.13;100435.25;5055359;28;45607;-66
2022/11/14 07:25:36;;;;;;;;;14.67;14.67;;;;;10.09;67.57;100428.22;5054791;28;45431;-66
2022/11/14 07:28:01;;;;;;;;;16.33;16.33;;;;;9.99;67.81;100434.72;5055070;28;46779;-66
2022/11/14 07:30:27;;;;;;;;;17.00;15.67;;;;;9.99;67.87;100429.47;5055237;28;45491;-66
2022/11/14 07:32:56;;;;;;;;;18.33;17.67;;;;;9.94;67.85;100416.50;5037667;28;45475;-66
2022/11/14 07:35:22;;;;;;;;;10.67;10.67;;;;;9.88;67.87;100425.44;5054916;28;46124;-66
2022/11/14 07:37:47;;;;;;;;;18.33;17.00;;;;;9.88;68.18;100435.09;5054993;28;45324;-66
2022/11/14 07:40:13;;;;;;;;;14.33;14.33;;;;;9.86;68.76;100434.28;5055068;28;45451;-66
2022/11/14 07:42:38;;;;;;;;;15.67;11.33;;;;;9.92;68.67;100440.19;5055001;28;45670;-66
2022/11/14 07:45:04;;;;;;;;;19.00;18.00;;;;;9.96;68.87;100431.28;5054679;28;46291;-66
2022/11/14 07:47:29;;;;;;;;;17.33;17.33;;;;;9.99;68.01;100432.94;5041758;28;45456;-66
2022/11/14 07:49:55;;;;;;;;;15.33;15.33;;;;;10.01;68.45;100427.63;5053739;28;45460;-66
2022/11/14 07:52:20;;;;;;;;;20.00;17.00;;;;;10.03;68.20;100426.69;5054685;28;45439;-66
2022/11/14 07:54:46;;;;;;;;;14.00;14.00;;;;;10.09;68.04;100429.06;5054562;28;45977;-66
2022/11/14 07:57:11;;;;;;;;;17.33;16.00;;;;;10.09;67.46;100436.94;5054852;28;45414;-66
2022/11/14 07:59:36;;;;;;;;;17.33;16.00;;;;;10.10;68.10;100432.53;5056123;28;45462;-66
2022/11/14 08:02:01;;;;;;;;;13.33;12.00;;;;;10.09;68.29;100431.69;5058548;28;45526;-66
2022/11/14 08:04:27;;;;;;;;;13.00;12.00;;;;;10.07;67.64;100416.91;5058041;28;45496;-66
2022/11/14 08:06:52;;;;;;;;;16.67;12.67;;;;;10.09;68.19;100426.44;5057736;28;48413;-66
2022/11/14 08:09:18;;;;;;;;;18.00;18.00;;;;;10.11;68.04;100421.16;5059097;28;45459;-65
2022/11/14 08:11:49;;;;;;;;;15.33;13.00;;;;;10.12;67.92;100412.34;5058084;28;45625;-66
2022/11/14 08:14:15;;;;;;;;;15.67;12.67;;;;;10.15;68.42;100412.22;5058006;28;45487;-66
2022/11/14 08:16:40;;;;;;;;;11.00;11.00;;;;;10.18;67.91;100426.13;5057849;28;45417;-65
2022/11/14 08:19:06;;;;;;;;;9.33;9.33;;;;;10.22;67.63;100426.88;5058216;28;45430;-66
2022/11/14 08:21:31;;;;;;;;;13.33;13.00;;;;;10.24;67.32;100421.56;5058169;28;45430;-66
2022/11/14 08:23:57;;;;;;;;;10.00;10.00;;;;;10.25;67.84;100423.25;5057655;28;45715;-66
2022/11/14 08:26:22;;;;;;;;;9.67;9.67;;;;;10.26;68.04;100420.59;5057817;28;45447;-66
2022/11/14 08:28:52;;;;;;;;;13.67;12.67;;;;;10.27;67.59;100424.06;5057830;28;45491;-66
2022/11/14 08:31:18;;;;;;;;;15.33;13.67;;;;;10.26;67.81;100422.34;5058070;28;45509;-66
2022/11/14 08:33:44;;;;;;;;;20.33;18.00;;;;;10.29;68.01;100430.13;5057447;28;45513;-66
2022/11/14 08:36:09;;;;;;;;;14.67;14.67;;;;;10.28;67.68;100413.53;5057884;28;45501;-66
2022/11/14 08:38:34;;;;;;;;;16.00;14.33;;;;;10.32;67.89;100428.28;5058064;28;45546;-66
2022/11/14 08:41:00;;;;;;;;;12.33;12.33;;;;;10.34;67.50;100420.31;5057705;28;45681;-65
2022/11/14 08:43:26;;;;;;;;;15.00;14.67;;;;;10.35;67.81;100424.69;5057618;28;45454;-66
2022/11/14 08:45:52;;;;;;;;;14.33;14.33;;;;;10.34;67.39;100423.81;5057259;28;45469;-66
2022/11/14 08:48:17;;;;;;;;;14.33;13.67;;;;;10.35;67.00;100422.91;5039389;28;45898;-66
2022/11/14 08:50:42;;;;;;;;;16.33;16.33;;;;;10.35;67.74;100422.91;5057462;28;51509;-66
2022/11/14 08:53:08;;;;;;;;;17.33;15.67;;;;;10.38;67.45;100433.28;5057319;28;46948;-66
2022/11/14 08:55:33;;;;;;;;;15.33;15.00;;;;;10.37;67.73;100434.22;5057607;28;45519;-66
2022/11/14 08:57:59;;;;;;;;;16.33;16.33;;;;;10.38;67.76;100440.34;5057509;28;45455;-66
2022/11/14 09:00:24;;;;;;;;;16.00;15.67;;;;;10.37;67.44;100434.22;5057282;28;45426;-66
2022/11/14 09:02:49;;;;;;;;;16.67;16.33;;;;;10.39;67.92;100442.03;5057191;28;46300;-65
2022/11/14 09:05:15;;;;;;;;;21.00;19.00;;;;;10.40;67.58;100435.88;5057374;28;45482;-65
2022/11/14 09:07:40;;;;;;;;;18.33;17.00;;;;;10.41;68.12;100432.31;5057509;28;45458;-65
2022/11/14 09:10:06;;;;;;;;;15.00;15.00;;;;;10.43;67.23;100433.13;5057911;28;45606;-65
2022/11/14 09:12:32;;;;;;;;;15.33;13.33;;;;;10.43;67.24;100427.88;5057222;28;46553;-65
2022/11/14 09:14:58;;;;;;;;;18.00;18.00;;;;;10.46;66.86;100435.66;5056872;28;45458;-65
2022/11/14 09:17:23;;;;;;;;;24.33;22.00;;;;;10.49;67.14;100443.41;5057213;28;45374;-65
2022/11/14 09:19:49;;;;;;;;;19.33;17.33;;;;;10.52;67.19;100431.94;5057339;28;45616;-65
2022/11/14 09:22:14;;;;;;;;;26.33;21.67;;;;;10.53;66.98;100431.00;5057023;28;46013;-65
2022/11/14 09:24:40;;;;;;;;;24.33;20.33;;;;;10.55;67.49;100434.44;5056806;28;45471;-66
2022/11/14 09:27:05;;;;;;;;;23.33;22.33;;;;;10.57;67.85;100433.47;5056764;28;47242;-65
2022/11/14 09:29:30;;;;;;;;;24.67;21.33;;;;;10.57;67.08;100440.50;5056672;28;49035;-68
2022/11/14 09:31:56;;;;;;;;;21.00;21.00;;;;;10.57;67.09;100437.88;5056718;28;46260;-65
2022/11/14 09:34:21;;;;;;;;;23.67;23.00;;;;;10.61;67.06;100440.34;5056872;28;45520;-65
2022/11/14 09:36:46;;;;;;;;;29.00;26.67;;;;;10.61;67.66;100431.56;5038773;28;45470;-66
2022/11/14 09:39:12;;;;;;;;;25.67;25.67;;;;;10.59;67.10;100433.41;5056145;28;48776;-67
2022/11/14 09:41:40;;;;;;;;;25.00;24.50;;;;;10.57;67.21;100427.34;5056823;28;45421;-66
2022/11/14 09:44:32;;;;;;;;;22.67;22.67;;;;;10.59;67.77;100425.53;5056403;28;45346;-67
2022/11/14 09:47:02;;;;;;;;;23.33;21.00;;;;;10.61;67.73;100416.66;5047756;28;45469;-67
2022/11/14 09:49:50;;;;;;;;;22.33;22.00;;;;;10.59;67.46;100420.28;5051416;28;45407;-65
2022/11/14 09:52:37;;;;;;;;;25.00;20.67;;;;;10.63;67.13;100429.75;5056112;28;46094;-65
2022/11/14 09:55:11;;;;;;;;;22.00;20.00;;;;;10.64;67.85;100423.59;5056189;28;45493;-66
2022/11/14 09:57:38;;;;;;;;;19.00;19.00;;;;;10.65;67.27;100429.69;5056585;28;45557;-66
2022/11/14 10:00:14;;;;;;;;;16.67;15.33;;;;;10.66;66.95;100423.50;5056273;28;45530;-66
2022/11/14 10:02:53;;;;;;;;;21.67;21.67;;;;;10.64;67.24;100420.94;5038170;28;48368;-67
2022/11/14 10:05:39;;;;;;;;;20.33;17.67;;;;;10.67;67.19;100435.75;5056018;28;45518;-66
2022/11/14 10:08:23;;;;;;;;;19.67;18.33;;;;;10.65;67.45;100433.19;5037894;28;45425;-65
2022/11/14 10:10:54;;;;;;;;;22.00;20.00;;;;;10.61;67.68;100435.06;5056319;28;45420;-66
2022/11/14 10:13:58;;;;;;;;;20.00;20.00;;;;;10.65;67.11;100435.81;5055923;28;46257;-66
2022/11/14 10:16:32;;;;;;;;;20.67;20.67;;;;;10.66;67.78;100434.88;5055947;28;45522;-66
2022/11/14 10:19:00;;;;;;;;;33.75;32.00;;;;;10.68;67.67;100429.56;5056150;28;45506;-67
2022/11/14 10:21:37;;;;;;;;;29.00;29.00;;;;;10.72;67.24;100434.66;5055507;28;45387;-66
2022/11/14 10:24:05;;;;;;;;;32.33;29.67;;;;;10.74;67.01;100421.44;5055733;28;46221;-66
2022/11/14 10:26:37;;;;;;;;;22.33;20.67;;;;;10.74;67.76;100419.66;5056027;28;45422;-66
2022/11/14 10:29:26;;;;;;;;;23.67;23.00;;;;;10.69;66.77;100411.09;5055891;28;45598;-66
2022/11/14 10:32:15;;;;;;;;;22.67;21.00;;;;;10.76;67.36;100424.88;5055955;28;45486;-66
2022/11/14 10:34:53;;;;;;;;;23.50;23.50;;;;;10.75;67.67;100415.28;5055992;28;45571;-66
2022/11/14 10:37:24;;;;;;;;;27.33;26.00;;;;;10.76;67.59;100409.94;5055783;28;45410;-66
2022/11/14 10:39:53;;;;;;;;;28.75;26.00;;;;;10.76;67.08;100412.56;5056024;28;45490;-66
2022/11/14 10:42:35;;;;;;;;;24.00;22.33;;;;;10.79;68.00;100404.56;5055632;28;45276;-66
2022/11/14 10:45:39;;;;;;;;;25.67;21.67;;;;;10.79;67.25;100396.66;5055702;28;46167;-66
2022/11/14 10:48:29;;;;;;;;;28.67;26.00;;;;;10.77;67.95;100398.53;4974013;28;45437;-66
2022/11/14 10:50:58;;;;;;;;;27.33;25.67;;;;;10.77;67.56;100395.88;5017133;28;45669;-66
2022/11/14 10:53:41;;;;;;;;;35.00;33.25;;;;;10.83;67.45;100387.75;5054723;28;45351;-66
2022/11/14 10:56:10;;;;;;;;;34.33;30.00;;;;;10.86;67.36;100383.28;5055448;28;46022;-66
2022/11/14 10:58:35;;;;;;;;;24.00;23.00;;;;;10.89;68.00;100384.00;5035619;28;45478;-67
2022/11/14 11:01:39;;;;;;;;;22.67;22.67;;;;;10.93;67.73;100387.38;5047607;28;45324;-67
2022/11/14 11:04:17;;;;;;;;;23.67;23.00;;;;;10.95;67.01;100386.38;5023816;28;45678;-67
2022/11/14 11:06:42;;;;;;;;;27.00;23.33;;;;;10.96;67.47;100381.97;5052141;28;45344;-66
2022/11/14 11:12:04;;;;;;;;;27.00;26.00;;;;;11.00;67.31;100383.56;5055523;28;45478;-67
2022/11/14 11:14:30;;;;;;;;;21.00;21.00;;;;;11.03;67.03;100380.81;5055305;28;45439;-67